KBHK

Details ICAO KBHK
Name Baker Muni
Region United States
Timezone America/Denver (UTC-7.0)
Plans Departing 0
Arriving 1
Stats Elevation 2,973 ft / 906 m (AMSL)
Location 46.347636° -104.259447°
Runways 1
Magnetic Variation 8.320° E
Sunrise 2017-12-15 14:35:09 UTC / 2017-12-15 07:35:09 Local
Sunset 2017-12-15 23:12:17 UTC / 2017-12-15 16:12:17 Local
Advertisement - Login to hide

Runways

ID Width Length Bearing (true) Bearing (mag) Surface Threshold Offset Overrun Length
13 75 ft / 23 m 4,892 ft / 1,491 m 137.81° 129.49° Asphalt 0 ft / 0 m 0 ft / 0 m
31 75 ft / 23 m 4,892 ft / 1,491 m 317.82° 309.50° Asphalt 0 ft / 0 m 0 ft / 0 m

Map

Weather


0- 5 10 15 20 25 30 35+ Temperature / ° C

Clouds and Precipitation
Forecast for 2017-12-15 18:00 UTC. Updated an hour ago

Ground ~20,000 ft ~40,000 ft Winds

METAR

KBHK 151351Z AUTO 26017KT 10SM CLR M01/M06 A2977 RMK AO2 SLP110 T10061056

TAF

Not found

Frequencies

Recorded 135.47 MHz ASOS
Unicom 122.90 MHz CTAF
Warning: Do not use this data for real-world aviation or navigation. No guarantee of current accuracy is given.